createdAt,value
2018-05-25T00:00:09.823Z,13.70
2018-05-25T00:02:38.802Z,13.80
2018-05-25T00:05:07.847Z,13.70
2018-05-25T00:07:36.859Z,13.70
2018-05-25T00:10:05.826Z,13.80
2018-05-25T00:12:34.836Z,13.70
2018-05-25T00:15:03.851Z,13.80
2018-05-25T00:17:32.092Z,13.70
2018-05-25T00:20:00.312Z,13.70
2018-05-25T00:22:28.551Z,13.70
2018-05-25T00:24:56.773Z,13.60
2018-05-25T00:27:25.075Z,13.60
2018-05-25T00:29:53.311Z,13.60
2018-05-25T00:32:21.565Z,13.60
2018-05-25T00:34:49.819Z,13.60
2018-05-25T00:37:18.064Z,13.60
2018-05-25T00:39:47.075Z,13.70
2018-05-25T00:42:16.046Z,13.70
2018-05-25T00:44:45.095Z,13.70
2018-05-25T00:47:13.331Z,13.70
2018-05-25T00:49:41.556Z,13.70
2018-05-25T00:52:09.885Z,13.70
2018-05-25T00:54:38.088Z,13.70
2018-05-25T00:57:06.370Z,13.70
2018-05-25T00:59:34.646Z,13.70
2018-05-25T01:02:02.888Z,13.80
2018-05-25T01:04:31.151Z,13.80
2018-05-25T01:06:59.333Z,13.80
2018-05-25T01:09:27.634Z,13.90
2018-05-25T01:11:55.893Z,13.90
2018-05-25T01:14:24.135Z,14.00
2018-05-25T01:16:52.375Z,14.00
2018-05-25T01:19:20.627Z,14.10
2018-05-25T01:21:49.626Z,14.10
2018-05-25T01:24:18.651Z,14.10
2018-05-25T01:26:46.898Z,14.10
2018-05-25T01:29:15.161Z,14.10
2018-05-25T01:31:43.424Z,14.00
2018-05-25T01:34:11.678Z,14.00
2018-05-25T01:36:39.885Z,13.90
2018-05-25T01:39:08.171Z,13.90
2018-05-25T01:41:37.187Z,13.80
2018-05-25T01:44:06.218Z,13.80
2018-05-25T01:46:34.459Z,13.70
2018-05-25T01:49:02.711Z,13.70
2018-05-25T01:51:30.930Z,13.60
2018-05-25T01:53:59.210Z,13.60
2018-05-25T01:56:27.465Z,13.60
2018-05-25T01:58:55.708Z,13.50
2018-05-25T02:01:24.724Z,13.50
2018-05-25T02:03:53.689Z,13.40
2018-05-25T02:06:22.741Z,13.40
2018-05-25T02:08:51.746Z,13.30
2018-05-25T02:11:20.755Z,13.30
2018-05-25T02:13:49.809Z,13.20
2018-05-25T02:16:19.518Z,13.20
2018-05-25T02:18:47.756Z,13.20
2018-05-25T02:21:16.023Z,13.20
2018-05-25T02:23:44.259Z,13.20
2018-05-25T02:26:12.518Z,13.20
2018-05-25T02:28:40.768Z,13.10
2018-05-25T02:31:09.028Z,13.10
2018-05-25T02:33:37.275Z,13.10
2018-05-25T02:36:05.530Z,13.00
2018-05-25T02:38:33.813Z,13.00
2018-05-25T02:41:02.761Z,13.00
2018-05-25T02:43:31.043Z,12.90
2018-05-25T02:45:59.311Z,13.00
2018-05-25T02:48:27.555Z,12.90
2018-05-25T02:50:55.835Z,12.90
2018-05-25T02:53:24.080Z,13.00
2018-05-25T02:55:52.329Z,12.90
2018-05-25T02:58:20.572Z,12.90
2018-05-25T03:00:48.847Z,12.90
2018-05-25T03:03:17.085Z,12.80
2018-05-25T03:05:46.116Z,12.80
2018-05-25T03:08:14.376Z,12.80
2018-05-25T03:13:12.227Z,12.70
2018-05-25T03:15:40.475Z,12.70
2018-05-25T03:18:09.474Z,12.70
2018-05-25T03:20:38.493Z,12.60
2018-05-25T03:23:07.502Z,12.60
2018-05-25T03:25:36.532Z,12.60
2018-05-25T03:28:04.782Z,12.60
2018-05-25T03:30:33.828Z,12.60
2018-05-25T03:33:02.068Z,12.50
2018-05-25T03:35:30.314Z,12.60
2018-05-25T03:37:58.590Z,12.60
2018-05-25T03:40:26.830Z,12.60
2018-05-25T03:42:55.065Z,12.60
2018-05-25T03:45:23.291Z,12.60
2018-05-25T03:47:51.554Z,12.60
2018-05-25T03:50:19.799Z,12.60
2018-05-25T03:52:48.775Z,12.50
2018-05-25T03:55:17.816Z,12.50
2018-05-25T03:57:46.834Z,12.60
2018-05-25T04:00:32.815Z,12.50
2018-05-25T04:03:01.076Z,12.60
2018-05-25T04:05:29.317Z,12.60
2018-05-25T04:07:58.357Z,12.60
2018-05-25T04:10:26.604Z,12.50
2018-05-25T04:12:55.634Z,12.60
2018-05-25T04:15:23.888Z,12.50
2018-05-25T04:17:52.950Z,12.60
2018-05-25T04:20:21.204Z,12.60
2018-05-25T04:22:50.235Z,12.70
2018-05-25T04:25:18.486Z,12.60
2018-05-25T04:27:47.518Z,12.80
2018-05-25T04:30:15.763Z,12.80
2018-05-25T04:32:44.000Z,12.90
2018-05-25T04:35:12.286Z,13.00
2018-05-25T04:37:40.547Z,13.10
2018-05-25T04:40:09.576Z,13.20
2018-05-25T04:42:37.850Z,13.10
2018-05-25T04:45:06.816Z,13.30
2018-05-25T04:47:35.877Z,13.40
2018-05-25T04:50:04.123Z,13.40
2018-05-25T04:52:32.441Z,13.60
2018-05-25T04:55:01.410Z,16.20
2018-05-25T04:57:30.466Z,18.40
2018-05-25T04:59:58.752Z,18.30
2018-05-25T05:02:26.984Z,20.40
2018-05-25T05:04:55.288Z,22.00
2018-05-25T05:07:23.491Z,23.10
2018-05-25T05:09:51.747Z,24.20
2018-05-25T05:12:19.987Z,25.10
2018-05-25T05:14:49.000Z,26.30
2018-05-25T05:17:18.003Z,26.60
2018-05-25T05:19:47.015Z,27.00
2018-05-25T05:22:15.251Z,26.90
2018-05-25T05:24:43.511Z,27.40
2018-05-25T05:27:11.800Z,27.70
2018-05-25T05:29:40.797Z,28.40
2018-05-25T05:32:09.023Z,28.30
2018-05-25T05:34:37.286Z,28.70
2018-05-25T05:37:05.519Z,29.00
2018-05-25T05:39:33.759Z,29.20
2018-05-25T05:42:02.014Z,29.30
2018-05-25T05:44:31.012Z,29.70
2018-05-25T05:47:00.004Z,29.80
2018-05-25T05:49:28.271Z,29.70
2018-05-25T05:51:56.495Z,30.00
2018-05-25T05:54:24.785Z,30.10
2018-05-25T05:56:53.019Z,29.90
2018-05-25T05:59:21.272Z,29.80
2018-05-25T06:01:50.236Z,29.40
2018-05-25T06:04:19.330Z,29.10
2018-05-25T06:06:48.291Z,29.50
2018-05-25T06:09:17.319Z,29.90
2018-05-25T06:11:45.560Z,29.80
2018-05-25T06:14:13.816Z,30.20
2018-05-25T06:16:42.153Z,30.20
2018-05-25T06:19:10.387Z,30.50
2018-05-25T06:21:38.678Z,30.00
2018-05-25T06:24:06.902Z,30.10
2018-05-25T06:26:35.158Z,30.40
2018-05-25T06:29:03.387Z,30.70
2018-05-25T06:31:31.647Z,31.00
2018-05-25T06:34:00.650Z,31.00
2018-05-25T06:36:28.942Z,31.00
2018-05-25T06:38:57.192Z,30.70
2018-05-25T06:41:26.219Z,29.90
2018-05-25T06:43:55.178Z,29.80
2018-05-25T06:46:23.412Z,28.50
2018-05-25T06:48:51.684Z,26.80
2018-05-25T06:51:19.952Z,25.50
2018-05-25T06:53:49.057Z,23.50
2018-05-25T06:56:17.333Z,23.40
2018-05-25T06:58:45.539Z,23.00
2018-05-25T07:01:13.871Z,22.50
2018-05-25T07:03:42.078Z,22.10
2018-05-25T07:06:11.148Z,21.70
2018-05-25T07:08:39.381Z,21.60
2018-05-25T07:11:07.623Z,21.60
2018-05-25T07:13:35.849Z,21.40
2018-05-25T07:16:04.109Z,21.30
2018-05-25T07:18:32.393Z,21.30
2018-05-25T07:21:00.614Z,21.40
2018-05-25T07:23:29.641Z,21.60
2018-05-25T07:25:57.898Z,21.60
2018-05-25T07:28:26.162Z,21.60
2018-05-25T07:30:54.440Z,21.60
2018-05-25T07:33:22.753Z,21.60
2018-05-25T07:35:51.762Z,21.50
2018-05-25T07:38:20.027Z,21.50
2018-05-25T07:40:49.041Z,21.50
2018-05-25T07:43:17.307Z,21.50
2018-05-25T07:45:46.320Z,21.60
2018-05-25T07:48:15.366Z,21.40
2018-05-25T07:50:43.603Z,21.40
2018-05-25T07:53:11.883Z,21.50
2018-05-25T07:55:40.130Z,21.70
2018-05-25T07:58:08.391Z,21.60
2018-05-25T08:00:37.415Z,21.90
2018-05-25T08:03:05.679Z,21.80
2018-05-25T08:05:34.691Z,22.00
2018-05-25T08:08:03.717Z,22.00
2018-05-25T08:10:32.755Z,22.10
2018-05-25T08:13:00.995Z,22.00
2018-05-25T08:15:30.012Z,22.00
2018-05-25T08:17:59.056Z,22.20
2018-05-25T08:20:27.308Z,22.10
2018-05-25T08:22:55.571Z,22.30
2018-05-25T08:25:24.588Z,22.50
2018-05-25T08:27:53.614Z,22.70
2018-05-25T08:30:21.940Z,22.70
2018-05-25T08:32:50.114Z,22.70
2018-05-25T08:35:18.367Z,22.70
2018-05-25T08:37:47.390Z,22.50
2018-05-25T08:40:15.627Z,22.50
2018-05-25T08:42:43.898Z,22.60
2018-05-25T08:45:12.143Z,22.60
2018-05-25T08:47:40.362Z,22.80
2018-05-25T08:50:08.611Z,23.10
2018-05-25T08:52:36.953Z,23.20
2018-05-25T08:55:05.223Z,23.30
2018-05-25T08:57:33.481Z,23.40
2018-05-25T09:00:02.495Z,23.60
2018-05-25T09:02:31.517Z,23.60
2018-05-25T09:04:59.755Z,23.60
2018-05-25T09:07:28.016Z,23.40
2018-05-25T09:09:56.291Z,23.60
2018-05-25T09:12:24.532Z,23.60
2018-05-25T09:14:52.795Z,23.70
2018-05-25T09:17:21.003Z,23.90
2018-05-25T09:19:49.306Z,24.10
2018-05-25T09:22:18.323Z,24.10
2018-05-25T09:24:47.314Z,24.30
2018-05-25T09:27:15.587Z,24.20
2018-05-25T09:29:43.851Z,24.30
2018-05-25T09:32:12.082Z,24.30
2018-05-25T09:34:41.120Z,24.40
2018-05-25T09:37:09.363Z,24.30
2018-05-25T09:39:37.607Z,24.50
2018-05-25T09:42:06.725Z,24.60
2018-05-25T09:44:35.019Z,24.50
2018-05-25T09:47:03.251Z,24.30
2018-05-25T09:49:32.275Z,24.30
2018-05-25T09:52:00.519Z,24.20
2018-05-25T09:54:28.787Z,24.20
2018-05-25T09:57:01.619Z,24.20
2018-05-25T09:59:29.871Z,24.30
2018-05-25T10:01:58.160Z,24.30
2018-05-25T10:04:26.434Z,24.40
2018-05-25T10:06:54.670Z,24.50
2018-05-25T10:09:22.941Z,24.30
2018-05-25T10:11:51.191Z,24.30
2018-05-25T10:14:19.447Z,24.50
2018-05-25T10:16:47.728Z,24.50
2018-05-25T10:19:15.931Z,24.50
2018-05-25T10:21:44.182Z,24.60
2018-05-25T10:24:13.226Z,24.60
2018-05-25T10:26:42.261Z,24.90
2018-05-25T10:29:10.499Z,24.80
2018-05-25T10:31:38.718Z,25.10
2018-05-25T10:34:06.994Z,25.30
2018-05-25T10:36:35.246Z,25.20
2018-05-25T10:39:03.479Z,25.10
2018-05-25T10:41:32.466Z,25.10
2018-05-25T10:44:00.767Z,25.00
2018-05-25T10:46:29.808Z,25.20
2018-05-25T10:48:58.059Z,25.20
2018-05-25T10:51:26.320Z,25.30
2018-05-25T10:53:54.556Z,25.20
2018-05-25T10:58:53.175Z,25.40
2018-05-25T11:01:22.944Z,25.30
2018-05-25T11:03:51.153Z,25.30
2018-05-25T11:06:20.211Z,25.40
2018-05-25T11:08:48.447Z,25.40
2018-05-25T11:11:16.727Z,25.50
2018-05-25T11:13:44.963Z,25.50
2018-05-25T11:16:14.009Z,25.50
2018-05-25T11:18:42.243Z,25.50
2018-05-25T11:21:10.513Z,25.60
2018-05-25T11:23:39.514Z,25.90
2018-05-25T11:26:07.771Z,25.80
2018-05-25T11:28:36.042Z,25.90
2018-05-25T11:31:05.059Z,25.90
2018-05-25T11:33:33.305Z,25.90
2018-05-25T11:36:01.572Z,26.00
2018-05-25T11:38:30.572Z,26.40
2018-05-25T11:40:58.891Z,26.40
2018-05-25T11:43:27.127Z,26.40
2018-05-25T11:45:55.385Z,26.00
2018-05-25T11:48:24.407Z,26.30
2018-05-25T11:50:52.645Z,26.30
2018-05-25T11:53:20.899Z,26.50
2018-05-25T11:55:49.140Z,26.30
2018-05-25T11:58:18.931Z,26.10
2018-05-25T12:00:47.137Z,26.10
2018-05-25T12:03:16.195Z,26.10
2018-05-25T12:05:45.242Z,26.10
2018-05-25T12:08:14.267Z,26.30
2018-05-25T12:10:42.511Z,26.30
2018-05-25T12:13:10.774Z,26.40
2018-05-25T12:15:39.786Z,26.30
2018-05-25T12:18:08.821Z,26.40
2018-05-25T12:20:37.065Z,26.40
2018-05-25T12:23:06.143Z,26.30
2018-05-25T12:25:34.327Z,26.30
2018-05-25T12:28:02.601Z,26.20
2018-05-25T12:30:31.613Z,26.20
2018-05-25T12:32:59.987Z,26.10
2018-05-25T12:35:28.338Z,26.10
2018-05-25T12:37:57.367Z,26.10
2018-05-25T12:40:25.621Z,26.10
2018-05-25T12:42:55.396Z,26.30
2018-05-25T12:45:24.776Z,26.50
2018-05-25T12:47:53.804Z,26.60
2018-05-25T12:50:22.051Z,26.60
2018-05-25T12:52:50.310Z,26.70
2018-05-25T12:55:18.565Z,26.80
2018-05-25T12:57:46.879Z,26.90
2018-05-25T13:00:15.114Z,26.90
2018-05-25T13:02:43.399Z,27.00
2018-05-25T13:05:11.656Z,27.20
2018-05-25T13:07:39.917Z,27.30
2018-05-25T13:10:08.171Z,27.30
2018-05-25T13:12:36.443Z,27.40
2018-05-25T13:15:04.692Z,27.30
2018-05-25T13:17:32.928Z,27.30
2018-05-25T13:20:01.223Z,27.40
2018-05-25T13:22:29.512Z,27.50
2018-05-25T13:24:57.770Z,27.40
2018-05-25T13:27:26.807Z,27.30
2018-05-25T13:29:55.084Z,27.20
2018-05-25T13:32:23.330Z,27.40
2018-05-25T13:34:51.579Z,27.20
2018-05-25T13:37:19.819Z,27.40
2018-05-25T13:39:48.087Z,26.80
2018-05-25T13:42:16.318Z,26.90
2018-05-25T13:44:44.586Z,26.90
2018-05-25T13:47:12.828Z,26.80
2018-05-25T13:49:41.892Z,26.70
2018-05-25T13:52:10.136Z,26.60
2018-05-25T13:54:39.156Z,26.70
2018-05-25T13:57:07.387Z,26.60
2018-05-25T13:59:36.399Z,26.60
2018-05-25T14:02:05.445Z,26.70
2018-05-25T14:04:34.473Z,26.90
2018-05-25T14:07:02.714Z,26.80
2018-05-25T14:09:30.988Z,26.80
2018-05-25T14:11:59.230Z,26.90
2018-05-25T14:14:27.490Z,26.90
2018-05-25T14:16:55.743Z,27.00
2018-05-25T14:19:24.007Z,26.90
2018-05-25T14:21:52.237Z,27.10
2018-05-25T14:24:20.567Z,27.20
2018-05-25T14:26:49.579Z,27.30
2018-05-25T14:29:17.839Z,27.30
2018-05-25T14:31:46.119Z,27.40
2018-05-25T14:34:14.385Z,27.30
2018-05-25T14:36:42.658Z,27.10
2018-05-25T14:39:11.118Z,27.00
2018-05-25T14:41:39.387Z,27.10
2018-05-25T14:44:07.627Z,26.90
2018-05-25T14:46:35.883Z,27.00
2018-05-25T14:49:05.265Z,27.00
2018-05-25T14:51:33.541Z,27.00
2018-05-25T14:54:01.842Z,27.20
2018-05-25T14:56:30.021Z,27.20
2018-05-25T14:58:58.357Z,27.20
2018-05-25T15:01:26.589Z,27.10
2018-05-25T15:03:54.846Z,26.80
2018-05-25T15:06:24.231Z,26.50
2018-05-25T15:08:52.479Z,26.50
2018-05-25T15:11:20.737Z,26.50
2018-05-25T15:13:48.975Z,26.50
2018-05-25T15:16:17.199Z,26.80
2018-05-25T15:18:45.445Z,27.00
2018-05-25T15:21:14.506Z,27.00
2018-05-25T15:23:43.554Z,27.00
2018-05-25T15:26:12.567Z,27.00
2018-05-25T15:28:40.815Z,26.90
2018-05-25T15:31:09.067Z,26.70
2018-05-25T15:33:37.327Z,26.70
2018-05-25T15:36:05.586Z,26.80
2018-05-25T15:38:33.826Z,26.80
2018-05-25T15:41:02.084Z,26.80
2018-05-25T15:43:30.327Z,26.70
2018-05-25T15:45:59.343Z,26.40
2018-05-25T15:48:28.362Z,26.50
2018-05-25T15:50:56.610Z,26.50
2018-05-25T15:53:24.860Z,26.40
2018-05-25T15:55:53.130Z,26.30
2018-05-25T15:58:21.379Z,26.10
2018-05-25T16:00:50.416Z,25.90
2018-05-25T16:03:18.647Z,25.90
2018-05-25T16:05:47.680Z,25.80
2018-05-25T16:08:15.927Z,25.80
2018-05-25T16:10:44.972Z,25.90
2018-05-25T16:13:13.201Z,25.80
2018-05-25T16:15:41.483Z,26.00
2018-05-25T16:18:09.726Z,26.00
2018-05-25T16:20:37.956Z,26.00
2018-05-25T16:23:06.306Z,26.00
2018-05-25T16:25:34.593Z,25.90
2018-05-25T16:28:02.858Z,25.80
2018-05-25T16:30:31.090Z,25.80
2018-05-25T16:32:59.338Z,25.90
2018-05-25T16:35:27.595Z,25.90
2018-05-25T16:37:55.820Z,26.00
2018-05-25T16:40:24.865Z,26.00
2018-05-25T16:42:53.900Z,25.90
2018-05-25T16:45:22.117Z,25.90
2018-05-25T16:47:50.435Z,25.80
2018-05-25T16:50:18.744Z,25.70
2018-05-25T16:52:46.940Z,25.80
2018-05-25T16:55:15.919Z,26.70
2018-05-25T16:57:44.214Z,26.70
2018-05-25T17:00:12.462Z,27.10
2018-05-25T17:02:40.719Z,27.30
2018-05-25T17:05:08.970Z,27.70
2018-05-25T17:07:37.523Z,27.90
2018-05-25T17:10:05.778Z,28.10
2018-05-25T17:12:35.599Z,28.00
2018-05-25T17:15:03.786Z,28.00
2018-05-25T17:17:32.053Z,28.00
2018-05-25T17:20:00.283Z,28.20
2018-05-25T17:22:28.569Z,28.60
2018-05-25T17:24:56.775Z,29.00
2018-05-25T17:27:25.139Z,28.80
2018-05-25T17:29:54.864Z,27.30
2018-05-25T17:32:23.099Z,27.30
2018-05-25T17:34:52.223Z,26.30
2018-05-25T17:37:21.238Z,26.10
2018-05-25T17:39:50.330Z,25.80
2018-05-25T17:42:18.566Z,25.70
2018-05-25T17:44:48.347Z,25.20
2018-05-25T17:47:16.667Z,25.20
2018-05-25T17:49:45.677Z,24.90
2018-05-25T17:52:15.420Z,24.70
2018-05-25T17:54:43.810Z,24.70
2018-05-25T17:57:12.824Z,24.40
2018-05-25T17:59:41.093Z,24.30
2018-05-25T18:02:10.057Z,24.00
2018-05-25T18:04:39.133Z,24.00
2018-05-25T18:07:07.415Z,23.90
2018-05-25T18:09:37.196Z,23.70
2018-05-25T18:12:05.431Z,23.60
2018-05-25T18:14:33.702Z,23.60
2018-05-25T18:17:02.731Z,23.50
2018-05-25T18:19:30.995Z,23.40
2018-05-25T18:22:00.026Z,23.50
2018-05-25T18:24:28.287Z,23.40
2018-05-25T18:26:57.294Z,23.20
2018-05-25T18:29:26.353Z,23.10
2018-05-25T18:31:54.587Z,23.10
2018-05-25T18:34:23.612Z,22.90
2018-05-25T18:36:51.863Z,22.90
2018-05-25T18:39:20.124Z,22.80
2018-05-25T18:41:48.336Z,22.70
2018-05-25T18:44:17.367Z,22.50
2018-05-25T18:46:45.639Z,22.40
2018-05-25T18:49:13.872Z,22.40
2018-05-25T18:51:42.173Z,22.30
2018-05-25T18:54:29.088Z,22.00
2018-05-25T18:56:57.311Z,22.00
2018-05-25T18:59:25.596Z,21.90
2018-05-25T19:01:53.862Z,21.90
2018-05-25T19:04:22.091Z,21.80
2018-05-25T19:06:50.394Z,21.60
2018-05-25T19:09:18.627Z,21.50
2018-05-25T19:11:46.947Z,21.30
2018-05-25T19:14:15.157Z,21.20
2018-05-25T19:16:43.455Z,21.00
2018-05-25T19:19:11.709Z,20.90
2018-05-25T19:21:39.976Z,20.80
2018-05-25T19:24:08.217Z,20.70
2018-05-25T19:26:36.470Z,20.60
2018-05-25T19:29:04.729Z,20.60
2018-05-25T19:31:32.978Z,20.50
2018-05-25T19:34:01.179Z,20.50
2018-05-25T19:36:29.474Z,20.40
2018-05-25T19:38:58.524Z,20.30
2018-05-25T19:41:26.783Z,20.20
2018-05-25T19:43:55.047Z,20.20
2018-05-25T19:46:24.083Z,20.00
2018-05-25T19:48:52.315Z,20.00
2018-05-25T19:51:20.580Z,20.00
2018-05-25T19:53:48.824Z,19.90
2018-05-25T19:56:17.083Z,19.80
2018-05-25T19:58:45.331Z,19.70
2018-05-25T20:01:13.591Z,19.70
2018-05-25T20:03:42.612Z,19.50
2018-05-25T20:06:11.632Z,19.40
2018-05-25T20:08:39.838Z,19.40
2018-05-25T20:11:08.143Z,19.40
2018-05-25T20:13:36.414Z,19.30
2018-05-25T20:16:04.680Z,19.30
2018-05-25T20:18:32.874Z,19.20
2018-05-25T20:21:01.110Z,19.20
2018-05-25T20:23:30.171Z,19.10
2018-05-25T20:25:58.419Z,19.00
2018-05-25T20:28:26.780Z,19.00
2018-05-25T20:30:55.725Z,18.90
2018-05-25T20:33:25.496Z,18.80
2018-05-25T20:35:53.725Z,18.80
2018-05-25T20:38:21.991Z,18.80
2018-05-25T20:40:50.256Z,18.70
2018-05-25T20:43:18.501Z,18.70
2018-05-25T20:45:46.739Z,18.60
2018-05-25T20:48:15.010Z,18.60
2018-05-25T20:50:43.242Z,18.50
2018-05-25T20:53:11.508Z,18.50
2018-05-25T20:55:39.744Z,18.40
2018-05-25T20:58:07.995Z,18.40
2018-05-25T21:00:36.244Z,18.30
2018-05-25T21:03:04.504Z,18.30
2018-05-25T21:05:32.751Z,18.20
2018-05-25T21:08:01.002Z,18.20
2018-05-25T21:10:30.003Z,18.10
2018-05-25T21:12:58.987Z,18.10
2018-05-25T21:15:27.262Z,18.10
2018-05-25T21:17:55.518Z,18.10
2018-05-25T21:20:23.802Z,18.10
2018-05-25T21:22:52.059Z,18.00
2018-05-25T21:25:21.075Z,18.00
2018-05-25T21:27:50.092Z,18.00
2018-05-25T21:30:18.336Z,17.90
2018-05-25T21:32:46.576Z,17.90
2018-05-25T21:35:14.783Z,18.00
2018-05-25T21:37:43.083Z,18.00
2018-05-25T21:40:11.292Z,18.00
2018-05-25T21:42:39.602Z,17.90
2018-05-25T21:45:07.835Z,17.90
2018-05-25T21:47:36.098Z,17.90
2018-05-25T21:50:05.851Z,17.80
2018-05-25T21:52:34.092Z,17.80
2018-05-25T21:55:03.117Z,17.90
2018-05-25T21:57:31.375Z,17.80
2018-05-25T21:59:59.631Z,17.80
2018-05-25T22:02:27.832Z,17.80
2018-05-25T22:04:57.089Z,17.70
2018-05-25T22:07:26.120Z,17.60
2018-05-25T22:09:54.344Z,17.60
2018-05-25T22:12:23.320Z,17.60
2018-05-25T22:14:51.547Z,17.60
2018-05-25T22:17:20.592Z,17.50
2018-05-25T22:19:48.805Z,17.40
2018-05-25T22:22:17.081Z,17.50
2018-05-25T22:24:45.339Z,17.50
2018-05-25T22:27:14.716Z,17.40
2018-05-25T22:29:42.979Z,17.40
2018-05-25T22:32:11.226Z,17.40
2018-05-25T22:34:40.247Z,17.30
2018-05-25T22:37:09.251Z,17.20
2018-05-25T22:39:38.291Z,17.20
2018-05-25T22:42:05.747Z,17.10
2018-05-25T22:44:51.903Z,17.10
2018-05-25T22:47:37.978Z,16.90
2018-05-25T22:50:24.004Z,16.80
2018-05-25T22:52:56.883Z,16.80
2018-05-25T22:55:25.179Z,16.70
2018-05-25T22:57:53.376Z,16.70
2018-05-25T23:00:21.663Z,16.60
2018-05-25T23:02:49.902Z,16.60
2018-05-25T23:05:18.951Z,16.50
2018-05-25T23:07:47.182Z,16.40
2018-05-25T23:10:16.415Z,16.50
2018-05-25T23:12:44.655Z,16.40
2018-05-25T23:15:12.955Z,16.40
2018-05-25T23:17:41.157Z,16.40
2018-05-25T23:20:09.516Z,16.40
2018-05-25T23:22:37.755Z,16.40
2018-05-25T23:25:06.778Z,16.30
2018-05-25T23:27:35.020Z,16.30
2018-05-25T23:30:03.274Z,16.30
2018-05-25T23:32:31.511Z,16.20
2018-05-25T23:34:59.770Z,16.20
2018-05-25T23:37:28.024Z,16.20
2018-05-25T23:39:56.300Z,16.10
2018-05-25T23:42:25.607Z,16.10
2018-05-25T23:44:54.635Z,16.00
2018-05-25T23:47:22.875Z,15.90
2018-05-25T23:49:51.140Z,16.00
2018-05-25T23:52:19.383Z,15.90
2018-05-25T23:54:48.358Z,15.90
2018-05-25T23:57:16.631Z,15.80
2018-05-25T23:59:45.663Z,15.80
